sensor_id;sensor_type;location;lat;lon;timestamp;P1;durP1;ratioP1;P2;durP2;ratioP2
31126;SDS011;17775;57.948;12.514;2023-05-19T00:01:12;10.57;;;3.47;;
31126;SDS011;17775;57.948;12.514;2023-05-19T00:03:50;10.95;;;3.88;;
31126;SDS011;17775;57.948;12.514;2023-05-19T00:06:27;7.68;;;3.58;;
31126;SDS011;17775;57.948;12.514;2023-05-19T00:08:58;12.38;;;3.50;;
31126;SDS011;17775;57.948;12.514;2023-05-19T00:11:25;7.47;;;3.30;;
31126;SDS011;17775;57.948;12.514;2023-05-19T00:13:53;8.50;;;3.22;;
31126;SDS011;17775;57.948;12.514;2023-05-19T00:16:20;8.38;;;3.00;;
31126;SDS011;17775;57.948;12.514;2023-05-19T00:18:47;10.77;;;2.97;;
31126;SDS011;17775;57.948;12.514;2023-05-19T00:21:14;8.38;;;3.13;;
31126;SDS011;17775;57.948;12.514;2023-05-19T00:23:42;7.45;;;2.80;;
31126;SDS011;17775;57.948;12.514;2023-05-19T00:26:08;8.85;;;2.80;;
31126;SDS011;17775;57.948;12.514;2023-05-19T00:28:35;6.10;;;2.50;;
31126;SDS011;17775;57.948;12.514;2023-05-19T00:31:02;6.13;;;2.72;;
31126;SDS011;17775;57.948;12.514;2023-05-19T00:33:29;5.78;;;2.50;;
31126;SDS011;17775;57.948;12.514;2023-05-19T00:35:56;9.57;;;2.88;;
31126;SDS011;17775;57.948;12.514;2023-05-19T00:38:22;8.25;;;2.45;;
31126;SDS011;17775;57.948;12.514;2023-05-19T00:40:49;6.40;;;2.47;;
31126;SDS011;17775;57.948;12.514;2023-05-19T00:43:15;5.47;;;2.75;;
31126;SDS011;17775;57.948;12.514;2023-05-19T00:45:42;7.60;;;3.03;;
31126;SDS011;17775;57.948;12.514;2023-05-19T00:48:08;8.18;;;3.17;;
31126;SDS011;17775;57.948;12.514;2023-05-19T00:50:35;11.57;;;2.50;;
31126;SDS011;17775;57.948;12.514;2023-05-19T00:53:05;5.57;;;2.10;;
31126;SDS011;17775;57.948;12.514;2023-05-19T00:55:32;5.43;;;2.63;;
31126;SDS011;17775;57.948;12.514;2023-05-19T00:57:58;7.25;;;2.55;;
31126;SDS011;17775;57.948;12.514;2023-05-19T01:00:25;10.85;;;2.78;;
31126;SDS011;17775;57.948;12.514;2023-05-19T01:02:51;8.32;;;2.22;;
31126;SDS011;17775;57.948;12.514;2023-05-19T01:05:19;8.18;;;2.50;;
31126;SDS011;17775;57.948;12.514;2023-05-19T01:07:46;5.38;;;2.17;;
31126;SDS011;17775;57.948;12.514;2023-05-19T01:10:12;9.27;;;2.15;;
31126;SDS011;17775;57.948;12.514;2023-05-19T01:12:41;8.15;;;2.38;;
31126;SDS011;17775;57.948;12.514;2023-05-19T01:15:08;7.63;;;2.55;;
31126;SDS011;17775;57.948;12.514;2023-05-19T01:20:19;6.88;;;2.95;;
31126;SDS011;17775;57.948;12.514;2023-05-19T01:30:41;6.82;;;2.20;;
31126;SDS011;17775;57.948;12.514;2023-05-19T01:33:09;6.25;;;2.58;;
31126;SDS011;17775;57.948;12.514;2023-05-19T01:35:39;11.48;;;3.38;;
31126;SDS011;17775;57.948;12.514;2023-05-19T01:38:10;7.25;;;2.38;;
31126;SDS011;17775;57.948;12.514;2023-05-19T01:40:38;5.75;;;2.28;;
31126;SDS011;17775;57.948;12.514;2023-05-19T01:43:06;8.85;;;2.70;;
31126;SDS011;17775;57.948;12.514;2023-05-19T01:45:33;7.22;;;2.65;;
31126;SDS011;17775;57.948;12.514;2023-05-19T01:48:00;4.00;;;2.13;;
31126;SDS011;17775;57.948;12.514;2023-05-19T01:50:28;7.10;;;3.63;;
31126;SDS011;17775;57.948;12.514;2023-05-19T01:52:55;4.80;;;2.80;;
31126;SDS011;17775;57.948;12.514;2023-05-19T01:55:21;9.85;;;3.70;;
31126;SDS011;17775;57.948;12.514;2023-05-19T01:57:54;3.05;;;2.20;;
31126;SDS011;17775;57.948;12.514;2023-05-19T02:00:29;9.80;;;2.80;;
31126;SDS011;17775;57.948;12.514;2023-05-19T02:03:23;9.32;;;2.40;;
31126;SDS011;17775;57.948;12.514;2023-05-19T02:05:45;10.60;;;2.83;;
31126;SDS011;17775;57.948;12.514;2023-05-19T02:08:17;6.53;;;2.58;;
31126;SDS011;17775;57.948;12.514;2023-05-19T02:10:48;7.00;;;2.40;;
31126;SDS011;17775;57.948;12.514;2023-05-19T02:13:19;6.13;;;2.40;;
31126;SDS011;17775;57.948;12.514;2023-05-19T02:15:48;7.68;;;2.80;;
31126;SDS011;17775;57.948;12.514;2023-05-19T02:18:17;6.63;;;2.55;;
31126;SDS011;17775;57.948;12.514;2023-05-19T02:20:45;7.03;;;2.60;;
31126;SDS011;17775;57.948;12.514;2023-05-19T02:23:11;3.83;;;1.85;;
31126;SDS011;17775;57.948;12.514;2023-05-19T02:25:38;8.55;;;2.95;;
31126;SDS011;17775;57.948;12.514;2023-05-19T02:28:05;10.13;;;2.72;;
31126;SDS011;17775;57.948;12.514;2023-05-19T02:30:31;9.57;;;2.72;;
31126;SDS011;17775;57.948;12.514;2023-05-19T02:32:58;9.32;;;2.75;;
31126;SDS011;17775;57.948;12.514;2023-05-19T02:35:25;7.55;;;2.55;;
31126;SDS011;17775;57.948;12.514;2023-05-19T02:37:53;4.93;;;2.50;;
31126;SDS011;17775;57.948;12.514;2023-05-19T02:40:19;6.13;;;2.67;;
31126;SDS011;17775;57.948;12.514;2023-05-19T02:42:46;6.30;;;2.20;;
31126;SDS011;17775;57.948;12.514;2023-05-19T02:45:13;6.82;;;2.25;;
31126;SDS011;17775;57.948;12.514;2023-05-19T02:47:42;6.40;;;2.50;;
31126;SDS011;17775;57.948;12.514;2023-05-19T02:50:09;6.38;;;2.10;;
31126;SDS011;17775;57.948;12.514;2023-05-19T02:52:36;4.65;;;2.08;;
31126;SDS011;17775;57.948;12.514;2023-05-19T02:55:02;7.65;;;2.45;;
31126;SDS011;17775;57.948;12.514;2023-05-19T02:57:29;5.15;;;2.30;;
31126;SDS011;17775;57.948;12.514;2023-05-19T02:59:57;6.68;;;2.47;;
31126;SDS011;17775;57.948;12.514;2023-05-19T03:02:23;6.82;;;2.47;;
31126;SDS011;17775;57.948;12.514;2023-05-19T03:04:51;7.38;;;2.38;;
31126;SDS011;17775;57.948;12.514;2023-05-19T03:07:18;6.47;;;2.50;;
31126;SDS011;17775;57.948;12.514;2023-05-19T03:09:50;7.45;;;2.50;;
31126;SDS011;17775;57.948;12.514;2023-05-19T03:12:17;10.30;;;4.45;;
31126;SDS011;17775;57.948;12.514;2023-05-19T03:14:44;9.73;;;3.63;;
31126;SDS011;17775;57.948;12.514;2023-05-19T03:17:10;8.75;;;2.75;;
31126;SDS011;17775;57.948;12.514;2023-05-19T03:19:37;7.95;;;2.97;;
31126;SDS011;17775;57.948;12.514;2023-05-19T03:22:04;7.78;;;2.67;;
31126;SDS011;17775;57.948;12.514;2023-05-19T03:24:30;10.05;;;2.80;;
31126;SDS011;17775;57.948;12.514;2023-05-19T03:26:57;5.78;;;2.95;;
31126;SDS011;17775;57.948;12.514;2023-05-19T03:29:24;5.25;;;2.60;;
31126;SDS011;17775;57.948;12.514;2023-05-19T03:31:50;25.13;;;6.07;;
31126;SDS011;17775;57.948;12.514;2023-05-19T03:34:17;22.00;;;3.80;;
31126;SDS011;17775;57.948;12.514;2023-05-19T03:36:43;17.33;;;3.70;;
31126;SDS011;17775;57.948;12.514;2023-05-19T03:39:10;16.45;;;4.25;;
31126;SDS011;17775;57.948;12.514;2023-05-19T03:41:37;15.75;;;4.18;;
31126;SDS011;17775;57.948;12.514;2023-05-19T03:44:03;30.02;;;4.45;;
31126;SDS011;17775;57.948;12.514;2023-05-19T03:46:30;9.73;;;3.95;;
31126;SDS011;17775;57.948;12.514;2023-05-19T03:48:56;14.30;;;4.13;;
31126;SDS011;17775;57.948;12.514;2023-05-19T03:51:23;14.18;;;5.03;;
31126;SDS011;17775;57.948;12.514;2023-05-19T03:53:52;18.42;;;3.53;;
31126;SDS011;17775;57.948;12.514;2023-05-19T03:56:18;15.75;;;3.85;;
31126;SDS011;17775;57.948;12.514;2023-05-19T03:58:48;17.45;;;4.57;;
31126;SDS011;17775;57.948;12.514;2023-05-19T04:01:15;14.65;;;3.72;;
31126;SDS011;17775;57.948;12.514;2023-05-19T04:03:43;14.93;;;3.78;;
31126;SDS011;17775;57.948;12.514;2023-05-19T04:06:09;9.23;;;3.58;;
31126;SDS011;17775;57.948;12.514;2023-05-19T04:08:36;9.15;;;4.05;;
31126;SDS011;17775;57.948;12.514;2023-05-19T04:11:02;10.05;;;3.65;;
31126;SDS011;17775;57.948;12.514;2023-05-19T04:13:31;9.18;;;3.70;;
31126;SDS011;17775;57.948;12.514;2023-05-19T04:15:58;8.52;;;3.88;;
31126;SDS011;17775;57.948;12.514;2023-05-19T04:18:24;8.88;;;3.75;;
31126;SDS011;17775;57.948;12.514;2023-05-19T04:20:54;10.27;;;4.20;;
31126;SDS011;17775;57.948;12.514;2023-05-19T04:23:21;8.05;;;3.88;;
31126;SDS011;17775;57.948;12.514;2023-05-19T04:25:47;9.75;;;3.63;;
31126;SDS011;17775;57.948;12.514;2023-05-19T04:28:14;14.63;;;4.22;;
31126;SDS011;17775;57.948;12.514;2023-05-19T04:30:41;19.75;;;4.53;;
31126;SDS011;17775;57.948;12.514;2023-05-19T04:33:08;10.20;;;4.60;;
31126;SDS011;17775;57.948;12.514;2023-05-19T04:35:34;10.95;;;3.88;;
31126;SDS011;17775;57.948;12.514;2023-05-19T04:38:03;9.20;;;3.42;;
31126;SDS011;17775;57.948;12.514;2023-05-19T04:40:30;8.32;;;3.40;;
31126;SDS011;17775;57.948;12.514;2023-05-19T04:42:57;7.85;;;3.25;;
31126;SDS011;17775;57.948;12.514;2023-05-19T04:45:24;8.73;;;3.00;;
31126;SDS011;17775;57.948;12.514;2023-05-19T04:47:51;6.28;;;2.90;;
31126;SDS011;17775;57.948;12.514;2023-05-19T04:50:18;5.65;;;2.22;;
31126;SDS011;17775;57.948;12.514;2023-05-19T04:52:44;5.00;;;2.50;;
31126;SDS011;17775;57.948;12.514;2023-05-19T04:55:11;5.35;;;3.00;;
31126;SDS011;17775;57.948;12.514;2023-05-19T04:57:38;8.05;;;2.70;;
31126;SDS011;17775;57.948;12.514;2023-05-19T05:00:05;6.72;;;2.83;;
31126;SDS011;17775;57.948;12.514;2023-05-19T05:02:34;4.75;;;2.55;;
31126;SDS011;17775;57.948;12.514;2023-05-19T05:05:01;5.78;;;2.90;;
31126;SDS011;17775;57.948;12.514;2023-05-19T05:07:28;7.85;;;3.20;;
31126;SDS011;17775;57.948;12.514;2023-05-19T05:09:57;6.05;;;2.97;;
31126;SDS011;17775;57.948;12.514;2023-05-19T05:12:24;6.97;;;2.63;;
31126;SDS011;17775;57.948;12.514;2023-05-19T05:14:50;10.80;;;2.78;;
31126;SDS011;17775;57.948;12.514;2023-05-19T05:17:17;5.85;;;3.00;;
31126;SDS011;17775;57.948;12.514;2023-05-19T05:19:44;5.20;;;2.75;;
31126;SDS011;17775;57.948;12.514;2023-05-19T05:22:10;6.70;;;3.00;;
31126;SDS011;17775;57.948;12.514;2023-05-19T05:24:37;8.38;;;3.15;;
31126;SDS011;17775;57.948;12.514;2023-05-19T05:27:04;4.38;;;2.50;;
31126;SDS011;17775;57.948;12.514;2023-05-19T05:29:36;5.75;;;2.67;;
31126;SDS011;17775;57.948;12.514;2023-05-19T05:32:02;7.38;;;3.17;;
31126;SDS011;17775;57.948;12.514;2023-05-19T05:34:29;6.70;;;2.88;;
31126;SDS011;17775;57.948;12.514;2023-05-19T05:36:56;10.02;;;3.40;;
31126;SDS011;17775;57.948;12.514;2023-05-19T05:39:22;6.65;;;3.33;;
31126;SDS011;17775;57.948;12.514;2023-05-19T05:41:49;5.93;;;3.03;;
31126;SDS011;17775;57.948;12.514;2023-05-19T05:44:15;5.57;;;2.92;;
31126;SDS011;17775;57.948;12.514;2023-05-19T05:46:42;8.23;;;2.88;;
31126;SDS011;17775;57.948;12.514;2023-05-19T05:49:08;8.32;;;2.78;;
31126;SDS011;17775;57.948;12.514;2023-05-19T05:51:35;9.45;;;2.90;;
31126;SDS011;17775;57.948;12.514;2023-05-19T05:54:02;5.68;;;2.88;;
31126;SDS011;17775;57.948;12.514;2023-05-19T05:56:32;5.85;;;2.40;;
31126;SDS011;17775;57.948;12.514;2023-05-19T05:59:02;5.55;;;2.47;;
31126;SDS011;17775;57.948;12.514;2023-05-19T06:01:28;6.40;;;2.20;;
31126;SDS011;17775;57.948;12.514;2023-05-19T06:04:00;4.80;;;2.05;;
31126;SDS011;17775;57.948;12.514;2023-05-19T06:06:27;4.70;;;1.90;;
31126;SDS011;17775;57.948;12.514;2023-05-19T06:08:54;5.07;;;2.15;;
31126;SDS011;17775;57.948;12.514;2023-05-19T06:11:20;4.68;;;1.90;;
31126;SDS011;17775;57.948;12.514;2023-05-19T06:13:47;9.90;;;3.70;;
31126;SDS011;17775;57.948;12.514;2023-05-19T06:16:13;6.07;;;1.95;;
31126;SDS011;17775;57.948;12.514;2023-05-19T06:18:54;5.60;;;1.85;;
31126;SDS011;17775;57.948;12.514;2023-05-19T06:21:20;4.30;;;2.10;;
31126;SDS011;17775;57.948;12.514;2023-05-19T06:23:47;5.40;;;1.90;;
31126;SDS011;17775;57.948;12.514;2023-05-19T06:26:14;4.70;;;1.75;;
31126;SDS011;17775;57.948;12.514;2023-05-19T06:28:41;5.65;;;2.28;;
31126;SDS011;17775;57.948;12.514;2023-05-19T06:31:11;8.07;;;1.80;;
31126;SDS011;17775;57.948;12.514;2023-05-19T06:33:38;5.57;;;2.05;;
31126;SDS011;17775;57.948;12.514;2023-05-19T06:36:04;8.45;;;2.83;;
31126;SDS011;17775;57.948;12.514;2023-05-19T06:38:31;6.00;;;1.95;;
31126;SDS011;17775;57.948;12.514;2023-05-19T06:40:57;8.63;;;2.35;;
31126;SDS011;17775;57.948;12.514;2023-05-19T06:43:24;4.95;;;1.98;;
31126;SDS011;17775;57.948;12.514;2023-05-19T06:45:51;7.85;;;1.90;;
31126;SDS011;17775;57.948;12.514;2023-05-19T06:48:17;6.82;;;2.67;;
31126;SDS011;17775;57.948;12.514;2023-05-19T06:50:46;7.57;;;2.20;;
31126;SDS011;17775;57.948;12.514;2023-05-19T06:53:13;4.70;;;1.92;;
31126;SDS011;17775;57.948;12.514;2023-05-19T06:55:39;8.55;;;1.70;;
31126;SDS011;17775;57.948;12.514;2023-05-19T06:58:23;3.92;;;1.58;;
31126;SDS011;17775;57.948;12.514;2023-05-19T07:00:50;5.00;;;1.63;;
31126;SDS011;17775;57.948;12.514;2023-05-19T07:03:17;4.35;;;1.85;;
31126;SDS011;17775;57.948;12.514;2023-05-19T07:05:44;9.60;;;1.77;;
31126;SDS011;17775;57.948;12.514;2023-05-19T07:08:11;5.75;;;1.65;;
31126;SDS011;17775;57.948;12.514;2023-05-19T07:10:37;3.80;;;1.50;;
31126;SDS011;17775;57.948;12.514;2023-05-19T07:13:04;8.32;;;1.85;;
31126;SDS011;17775;57.948;12.514;2023-05-19T07:15:32;4.68;;;1.75;;
31126;SDS011;17775;57.948;12.514;2023-05-19T07:17:59;6.40;;;1.85;;
31126;SDS011;17775;57.948;12.514;2023-05-19T07:20:26;4.28;;;2.10;;
31126;SDS011;17775;57.948;12.514;2023-05-19T07:22:52;8.38;;;2.10;;
31126;SDS011;17775;57.948;12.514;2023-05-19T07:25:19;7.95;;;1.83;;
31126;SDS011;17775;57.948;12.514;2023-05-19T07:27:45;5.53;;;1.90;;
31126;SDS011;17775;57.948;12.514;2023-05-19T07:30:12;3.75;;;1.75;;
31126;SDS011;17775;57.948;12.514;2023-05-19T07:32:39;3.28;;;1.85;;
31126;SDS011;17775;57.948;12.514;2023-05-19T07:35:05;3.88;;;1.40;;
31126;SDS011;17775;57.948;12.514;2023-05-19T07:37:32;7.38;;;1.80;;
31126;SDS011;17775;57.948;12.514;2023-05-19T07:39:59;4.90;;;1.50;;
31126;SDS011;17775;57.948;12.514;2023-05-19T07:42:25;7.22;;;1.90;;
31126;SDS011;17775;57.948;12.514;2023-05-19T07:44:52;5.20;;;1.75;;
31126;SDS011;17775;57.948;12.514;2023-05-19T07:47:18;3.88;;;1.40;;
31126;SDS011;17775;57.948;12.514;2023-05-19T07:49:45;2.50;;;1.40;;
31126;SDS011;17775;57.948;12.514;2023-05-19T07:52:14;4.55;;;1.42;;
31126;SDS011;17775;57.948;12.514;2023-05-19T07:54:44;3.65;;;1.38;;
31126;SDS011;17775;57.948;12.514;2023-05-19T07:57:10;4.15;;;1.23;;
31126;SDS011;17775;57.948;12.514;2023-05-19T07:59:37;4.07;;;1.77;;
31126;SDS011;17775;57.948;12.514;2023-05-19T08:02:03;4.28;;;1.50;;
31126;SDS011;17775;57.948;12.514;2023-05-19T08:04:30;4.82;;;1.98;;
31126;SDS011;17775;57.948;12.514;2023-05-19T08:06:59;3.90;;;2.00;;
31126;SDS011;17775;57.948;12.514;2023-05-19T08:09:26;3.45;;;1.70;;
31126;SDS011;17775;57.948;12.514;2023-05-19T08:11:52;4.82;;;2.15;;
31126;SDS011;17775;57.948;12.514;2023-05-19T08:14:19;4.97;;;2.58;;
31126;SDS011;17775;57.948;12.514;2023-05-19T08:16:48;6.07;;;2.35;;
31126;SDS011;17775;57.948;12.514;2023-05-19T08:19:15;7.05;;;3.33;;
31126;SDS011;17775;57.948;12.514;2023-05-19T08:21:41;5.50;;;1.92;;
31126;SDS011;17775;57.948;12.514;2023-05-19T08:24:08;6.63;;;2.00;;
31126;SDS011;17775;57.948;12.514;2023-05-19T08:26:34;4.78;;;2.15;;
31126;SDS011;17775;57.948;12.514;2023-05-19T08:29:03;6.60;;;2.38;;
31126;SDS011;17775;57.948;12.514;2023-05-19T08:31:29;4.82;;;2.58;;
31126;SDS011;17775;57.948;12.514;2023-05-19T08:33:56;4.60;;;2.80;;
31126;SDS011;17775;57.948;12.514;2023-05-19T08:36:22;4.10;;;2.10;;
31126;SDS011;17775;57.948;12.514;2023-05-19T08:38:50;4.30;;;2.50;;
31126;SDS011;17775;57.948;12.514;2023-05-19T08:41:16;4.47;;;2.22;;
31126;SDS011;17775;57.948;12.514;2023-05-19T08:43:43;6.55;;;2.33;;
31126;SDS011;17775;57.948;12.514;2023-05-19T08:46:12;5.15;;;2.28;;
31126;SDS011;17775;57.948;12.514;2023-05-19T08:48:41;3.63;;;2.17;;
31126;SDS011;17775;57.948;12.514;2023-05-19T08:51:13;5.68;;;1.88;;
31126;SDS011;17775;57.948;12.514;2023-05-19T08:53:44;5.10;;;2.78;;
31126;SDS011;17775;57.948;12.514;2023-05-19T08:56:14;5.40;;;2.42;;
31126;SDS011;17775;57.948;12.514;2023-05-19T08:58:41;4.43;;;2.20;;
31126;SDS011;17775;57.948;12.514;2023-05-19T09:01:09;4.10;;;2.30;;
31126;SDS011;17775;57.948;12.514;2023-05-19T09:03:38;3.58;;;2.03;;
31126;SDS011;17775;57.948;12.514;2023-05-19T09:06:06;4.10;;;1.95;;
31126;SDS011;17775;57.948;12.514;2023-05-19T09:08:40;4.78;;;2.03;;
31126;SDS011;17775;57.948;12.514;2023-05-19T09:11:09;5.38;;;2.30;;
31126;SDS011;17775;57.948;12.514;2023-05-19T09:13:35;5.32;;;2.45;;
31126;SDS011;17775;57.948;12.514;2023-05-19T09:16:02;3.25;;;1.98;;
31126;SDS011;17775;57.948;12.514;2023-05-19T09:18:29;7.10;;;2.55;;
31126;SDS011;17775;57.948;12.514;2023-05-19T09:20:56;5.80;;;1.98;;
31126;SDS011;17775;57.948;12.514;2023-05-19T09:23:26;3.60;;;2.08;;
31126;SDS011;17775;57.948;12.514;2023-05-19T09:25:59;6.25;;;2.65;;
31126;SDS011;17775;57.948;12.514;2023-05-19T09:28:27;4.80;;;2.20;;
31126;SDS011;17775;57.948;12.514;2023-05-19T09:31:06;4.00;;;2.00;;
31126;SDS011;17775;57.948;12.514;2023-05-19T09:33:34;4.00;;;1.92;;
31126;SDS011;17775;57.948;12.514;2023-05-19T09:36:01;8.20;;;2.05;;
31126;SDS011;17775;57.948;12.514;2023-05-19T09:38:29;5.70;;;2.17;;
31126;SDS011;17775;57.948;12.514;2023-05-19T09:40:56;5.25;;;2.20;;
31126;SDS011;17775;57.948;12.514;2023-05-19T09:43:27;3.97;;;2.22;;
31126;SDS011;17775;57.948;12.514;2023-05-19T09:46:12;3.83;;;1.95;;
31126;SDS011;17775;57.948;12.514;2023-05-19T09:48:40;6.00;;;2.13;;
31126;SDS011;17775;57.948;12.514;2023-05-19T09:51:09;3.75;;;2.15;;
31126;SDS011;17775;57.948;12.514;2023-05-19T09:53:37;4.32;;;2.13;;
31126;SDS011;17775;57.948;12.514;2023-05-19T09:56:04;5.00;;;2.22;;
31126;SDS011;17775;57.948;12.514;2023-05-19T09:58:31;5.28;;;2.17;;
31126;SDS011;17775;57.948;12.514;2023-05-19T10:01:02;5.22;;;1.95;;
31126;SDS011;17775;57.948;12.514;2023-05-19T10:03:29;2.35;;;1.70;;
31126;SDS011;17775;57.948;12.514;2023-05-19T10:05:57;3.55;;;1.85;;
31126;SDS011;17775;57.948;12.514;2023-05-19T10:08:25;4.85;;;2.20;;
31126;SDS011;17775;57.948;12.514;2023-05-19T10:10:52;5.32;;;2.13;;
31126;SDS011;17775;57.948;12.514;2023-05-19T10:13:19;3.78;;;1.75;;
31126;SDS011;17775;57.948;12.514;2023-05-19T10:15:46;4.47;;;1.77;;
31126;SDS011;17775;57.948;12.514;2023-05-19T10:18:24;6.65;;;2.03;;
31126;SDS011;17775;57.948;12.514;2023-05-19T10:20:52;6.18;;;1.95;;
31126;SDS011;17775;57.948;12.514;2023-05-19T10:23:19;3.75;;;1.70;;
31126;SDS011;17775;57.948;12.514;2023-05-19T10:25:46;3.45;;;1.98;;
31126;SDS011;17775;57.948;12.514;2023-05-19T10:28:15;8.43;;;2.35;;
31126;SDS011;17775;57.948;12.514;2023-05-19T10:30:46;3.20;;;1.48;;
31126;SDS011;17775;57.948;12.514;2023-05-19T10:33:14;3.42;;;1.70;;
31126;SDS011;17775;57.948;12.514;2023-05-19T10:35:46;4.80;;;2.00;;
31126;SDS011;17775;57.948;12.514;2023-05-19T10:43:37;3.78;;;1.88;;
31126;SDS011;17775;57.948;12.514;2023-05-19T10:46:05;3.78;;;1.70;;
31126;SDS011;17775;57.948;12.514;2023-05-19T10:48:32;5.15;;;1.90;;
31126;SDS011;17775;57.948;12.514;2023-05-19T10:51:01;6.20;;;2.90;;
31126;SDS011;17775;57.948;12.514;2023-05-19T10:53:31;5.78;;;2.03;;
31126;SDS011;17775;57.948;12.514;2023-05-19T10:55:59;3.27;;;1.73;;
31126;SDS011;17775;57.948;12.514;2023-05-19T10:58:35;4.45;;;1.90;;
31126;SDS011;17775;57.948;12.514;2023-05-19T11:01:05;3.90;;;1.75;;
31126;SDS011;17775;57.948;12.514;2023-05-19T11:03:41;4.47;;;1.95;;
31126;SDS011;17775;57.948;12.514;2023-05-19T11:06:31;4.50;;;1.85;;
31126;SDS011;17775;57.948;12.514;2023-05-19T11:08:59;3.33;;;1.80;;
31126;SDS011;17775;57.948;12.514;2023-05-19T11:11:41;5.43;;;1.95;;
31126;SDS011;17775;57.948;12.514;2023-05-19T11:14:11;3.72;;;1.95;;
31126;SDS011;17775;57.948;12.514;2023-05-19T11:16:44;3.47;;;1.75;;
31126;SDS011;17775;57.948;12.514;2023-05-19T11:22:34;3.10;;;1.70;;
31126;SDS011;17775;57.948;12.514;2023-05-19T11:25:02;4.75;;;1.70;;
31126;SDS011;17775;57.948;12.514;2023-05-19T11:27:54;3.42;;;1.50;;
31126;SDS011;17775;57.948;12.514;2023-05-19T11:30:23;3.85;;;1.90;;
31126;SDS011;17775;57.948;12.514;2023-05-19T11:32:50;5.20;;;2.03;;
31126;SDS011;17775;57.948;12.514;2023-05-19T11:35:17;3.83;;;2.13;;
31126;SDS011;17775;57.948;12.514;2023-05-19T11:37:47;5.68;;;2.13;;
31126;SDS011;17775;57.948;12.514;2023-05-19T11:40:14;4.85;;;2.10;;
31126;SDS011;17775;57.948;12.514;2023-05-19T11:42:40;3.17;;;2.22;;
31126;SDS011;17775;57.948;12.514;2023-05-19T11:45:10;5.32;;;2.17;;
31126;SDS011;17775;57.948;12.514;2023-05-19T11:47:36;2.92;;;1.73;;
31126;SDS011;17775;57.948;12.514;2023-05-19T11:50:26;4.60;;;1.70;;
31126;SDS011;17775;57.948;12.514;2023-05-19T11:52:53;3.85;;;2.15;;
31126;SDS011;17775;57.948;12.514;2023-05-19T11:55:20;3.72;;;2.25;;
31126;SDS011;17775;57.948;12.514;2023-05-19T12:00:33;2.63;;;1.80;;
31126;SDS011;17775;57.948;12.514;2023-05-19T12:03:02;2.85;;;1.70;;
31126;SDS011;17775;57.948;12.514;2023-05-19T12:05:29;3.20;;;1.88;;
31126;SDS011;17775;57.948;12.514;2023-05-19T12:08:01;3.78;;;1.95;;
31126;SDS011;17775;57.948;12.514;2023-05-19T12:10:28;7.15;;;2.00;;
31126;SDS011;17775;57.948;12.514;2023-05-19T12:12:55;2.92;;;2.03;;
31126;SDS011;17775;57.948;12.514;2023-05-19T12:15:23;3.10;;;2.03;;
31126;SDS011;17775;57.948;12.514;2023-05-19T12:17:57;4.05;;;2.10;;
31126;SDS011;17775;57.948;12.514;2023-05-19T12:20:24;3.22;;;2.20;;
31126;SDS011;17775;57.948;12.514;2023-05-19T12:22:54;2.63;;;1.83;;
31126;SDS011;17775;57.948;12.514;2023-05-19T12:25:22;3.33;;;2.40;;
31126;SDS011;17775;57.948;12.514;2023-05-19T12:27:48;3.17;;;2.25;;
31126;SDS011;17775;57.948;12.514;2023-05-19T12:30:17;2.92;;;2.00;;
31126;SDS011;17775;57.948;12.514;2023-05-19T12:32:52;3.53;;;2.35;;
31126;SDS011;17775;57.948;12.514;2023-05-19T12:35:19;2.80;;;2.03;;
31126;SDS011;17775;57.948;12.514;2023-05-19T12:37:45;3.15;;;2.45;;
31126;SDS011;17775;57.948;12.514;2023-05-19T12:40:14;3.25;;;1.98;;
31126;SDS011;17775;57.948;12.514;2023-05-19T12:42:45;4.85;;;2.33;;
31126;SDS011;17775;57.948;12.514;2023-05-19T12:45:12;3.15;;;2.10;;
31126;SDS011;17775;57.948;12.514;2023-05-19T12:47:41;3.53;;;1.73;;
31126;SDS011;17775;57.948;12.514;2023-05-19T12:50:12;3.55;;;2.08;;
31126;SDS011;17775;57.948;12.514;2023-05-19T12:52:46;4.38;;;2.10;;
31126;SDS011;17775;57.948;12.514;2023-05-19T12:55:14;2.55;;;2.00;;
31126;SDS011;17775;57.948;12.514;2023-05-19T12:57:47;4.25;;;2.38;;
31126;SDS011;17775;57.948;12.514;2023-05-19T13:00:16;3.85;;;1.80;;
31126;SDS011;17775;57.948;12.514;2023-05-19T13:03:02;3.22;;;2.15;;
31126;SDS011;17775;57.948;12.514;2023-05-19T13:05:31;2.85;;;2.40;;
31126;SDS011;17775;57.948;12.514;2023-05-19T13:08:05;3.60;;;2.20;;
31126;SDS011;17775;57.948;12.514;2023-05-19T13:10:33;3.35;;;2.35;;
31126;SDS011;17775;57.948;12.514;2023-05-19T13:13:01;3.53;;;2.30;;
31126;SDS011;17775;57.948;12.514;2023-05-19T13:15:29;4.72;;;2.40;;
31126;SDS011;17775;57.948;12.514;2023-05-19T13:18:02;4.65;;;2.78;;
31126;SDS011;17775;57.948;12.514;2023-05-19T13:20:29;3.08;;;2.30;;
31126;SDS011;17775;57.948;12.514;2023-05-19T13:22:55;2.33;;;1.90;;
31126;SDS011;17775;57.948;12.514;2023-05-19T13:25:22;4.38;;;2.58;;
31126;SDS011;17775;57.948;12.514;2023-05-19T13:27:49;3.08;;;2.42;;
31126;SDS011;17775;57.948;12.514;2023-05-19T13:30:16;6.28;;;2.80;;
31126;SDS011;17775;57.948;12.514;2023-05-19T13:32:43;4.97;;;2.50;;
31126;SDS011;17775;57.948;12.514;2023-05-19T13:35:11;3.53;;;2.70;;
31126;SDS011;17775;57.948;12.514;2023-05-19T13:37:37;3.97;;;2.30;;
31126;SDS011;17775;57.948;12.514;2023-05-19T13:40:07;2.83;;;2.07;;
31126;SDS011;17775;57.948;12.514;2023-05-19T13:42:34;4.68;;;2.40;;
31126;SDS011;17775;57.948;12.514;2023-05-19T13:45:01;3.95;;;2.47;;
31126;SDS011;17775;57.948;12.514;2023-05-19T13:47:28;4.03;;;2.67;;
31126;SDS011;17775;57.948;12.514;2023-05-19T13:49:55;3.55;;;2.28;;
31126;SDS011;17775;57.948;12.514;2023-05-19T13:52:22;3.28;;;2.00;;
31126;SDS011;17775;57.948;12.514;2023-05-19T13:54:48;4.10;;;2.03;;
31126;SDS011;17775;57.948;12.514;2023-05-19T13:57:15;3.80;;;2.20;;
31126;SDS011;17775;57.948;12.514;2023-05-19T13:59:42;2.97;;;1.95;;
31126;SDS011;17775;57.948;12.514;2023-05-19T14:02:25;4.60;;;2.35;;
31126;SDS011;17775;57.948;12.514;2023-05-19T14:04:52;3.63;;;2.78;;
31126;SDS011;17775;57.948;12.514;2023-05-19T14:07:19;2.70;;;2.00;;
31126;SDS011;17775;57.948;12.514;2023-05-19T14:09:46;3.83;;;2.22;;
31126;SDS011;17775;57.948;12.514;2023-05-19T14:12:13;3.35;;;2.17;;
31126;SDS011;17775;57.948;12.514;2023-05-19T14:14:39;3.67;;;2.50;;
31126;SDS011;17775;57.948;12.514;2023-05-19T14:17:06;3.00;;;2.50;;
31126;SDS011;17775;57.948;12.514;2023-05-19T14:19:32;5.72;;;2.13;;
31126;SDS011;17775;57.948;12.514;2023-05-19T14:21:59;4.80;;;2.00;;
31126;SDS011;17775;57.948;12.514;2023-05-19T14:24:25;3.25;;;2.33;;
31126;SDS011;17775;57.948;12.514;2023-05-19T14:26:52;3.35;;;2.08;;
31126;SDS011;17775;57.948;12.514;2023-05-19T14:29:22;4.82;;;2.38;;
31126;SDS011;17775;57.948;12.514;2023-05-19T14:31:48;3.75;;;2.20;;
31126;SDS011;17775;57.948;12.514;2023-05-19T14:34:15;2.72;;;2.10;;
31126;SDS011;17775;57.948;12.514;2023-05-19T14:36:46;4.03;;;2.40;;
31126;SDS011;17775;57.948;12.514;2023-05-19T14:39:13;3.30;;;2.20;;
31126;SDS011;17775;57.948;12.514;2023-05-19T14:41:40;2.75;;;2.15;;
31126;SDS011;17775;57.948;12.514;2023-05-19T14:44:06;3.63;;;2.22;;
31126;SDS011;17775;57.948;12.514;2023-05-19T14:46:33;3.58;;;2.40;;
31126;SDS011;17775;57.948;12.514;2023-05-19T14:48:59;3.70;;;2.00;;
31126;SDS011;17775;57.948;12.514;2023-05-19T14:51:26;3.50;;;2.15;;
31126;SDS011;17775;57.948;12.514;2023-05-19T14:53:52;3.67;;;2.22;;
31126;SDS011;17775;57.948;12.514;2023-05-19T14:56:19;3.38;;;2.28;;
31126;SDS011;17775;57.948;12.514;2023-05-19T14:58:47;5.35;;;2.00;;
31126;SDS011;17775;57.948;12.514;2023-05-19T15:01:13;3.10;;;2.20;;